sensor_id;sensor_type;location;lat;lon;timestamp;P1;durP1;ratioP1;P2;durP2;ratioP2
27802;SDS011;15182;48.174;11.562;2023-12-28T00:00:07;4.80;;;4.50;;
27802;SDS011;15182;48.174;11.562;2023-12-28T00:02:36;4.77;;;4.50;;
27802;SDS011;15182;48.174;11.562;2023-12-28T00:05:04;4.20;;;4.03;;
27802;SDS011;15182;48.174;11.562;2023-12-28T00:07:32;3.83;;;3.73;;
27802;SDS011;15182;48.174;11.562;2023-12-28T00:10:01;4.57;;;4.37;;
27802;SDS011;15182;48.174;11.562;2023-12-28T00:12:31;4.90;;;4.60;;
27802;SDS011;15182;48.174;11.562;2023-12-28T00:14:59;4.30;;;4.10;;
27802;SDS011;15182;48.174;11.562;2023-12-28T00:17:27;5.20;;;4.90;;
27802;SDS011;15182;48.174;11.562;2023-12-28T00:19:54;4.17;;;3.97;;
27802;SDS011;15182;48.174;11.562;2023-12-28T00:22:22;3.80;;;3.70;;
27802;SDS011;15182;48.174;11.562;2023-12-28T00:24:50;4.07;;;3.97;;
27802;SDS011;15182;48.174;11.562;2023-12-28T00:27:18;3.97;;;3.87;;
27802;SDS011;15182;48.174;11.562;2023-12-28T00:29:47;4.17;;;4.07;;
27802;SDS011;15182;48.174;11.562;2023-12-28T00:32:15;4.60;;;4.40;;
27802;SDS011;15182;48.174;11.562;2023-12-28T00:34:43;4.40;;;4.20;;
27802;SDS011;15182;48.174;11.562;2023-12-28T00:37:11;4.40;;;4.20;;
27802;SDS011;15182;48.174;11.562;2023-12-28T00:39:39;4.30;;;4.10;;
27802;SDS011;15182;48.174;11.562;2023-12-28T00:42:07;3.70;;;3.40;;
27802;SDS011;15182;48.174;11.562;2023-12-28T00:44:35;3.63;;;3.50;;
27802;SDS011;15182;48.174;11.562;2023-12-28T00:47:05;4.13;;;3.83;;
27802;SDS011;15182;48.174;11.562;2023-12-28T00:49:33;3.50;;;3.40;;
27802;SDS011;15182;48.174;11.562;2023-12-28T00:52:01;3.37;;;3.37;;
27802;SDS011;15182;48.174;11.562;2023-12-28T00:54:31;3.83;;;3.73;;
27802;SDS011;15182;48.174;11.562;2023-12-28T00:56:58;3.83;;;3.60;;
27802;SDS011;15182;48.174;11.562;2023-12-28T00:59:26;3.87;;;3.77;;
27802;SDS011;15182;48.174;11.562;2023-12-28T01:01:55;3.43;;;3.33;;
27802;SDS011;15182;48.174;11.562;2023-12-28T01:04:24;3.87;;;3.77;;
27802;SDS011;15182;48.174;11.562;2023-12-28T01:06:52;3.57;;;3.47;;
27802;SDS011;15182;48.174;11.562;2023-12-28T01:09:20;3.33;;;3.23;;
27802;SDS011;15182;48.174;11.562;2023-12-28T01:11:48;4.07;;;3.97;;
27802;SDS011;15182;48.174;11.562;2023-12-28T01:14:16;3.50;;;3.50;;
27802;SDS011;15182;48.174;11.562;2023-12-28T01:16:43;3.53;;;3.33;;
27802;SDS011;15182;48.174;11.562;2023-12-28T01:19:11;3.97;;;3.87;;
27802;SDS011;15182;48.174;11.562;2023-12-28T01:21:40;3.50;;;3.33;;
27802;SDS011;15182;48.174;11.562;2023-12-28T01:24:08;3.67;;;3.57;;
27802;SDS011;15182;48.174;11.562;2023-12-28T01:26:36;3.90;;;3.80;;
27802;SDS011;15182;48.174;11.562;2023-12-28T01:29:04;3.80;;;3.70;;
27802;SDS011;15182;48.174;11.562;2023-12-28T01:31:32;3.40;;;3.30;;
27802;SDS011;15182;48.174;11.562;2023-12-28T01:33:59;3.93;;;3.67;;
27802;SDS011;15182;48.174;11.562;2023-12-28T01:36:27;3.47;;;3.37;;
27802;SDS011;15182;48.174;11.562;2023-12-28T01:38:57;3.57;;;3.40;;
27802;SDS011;15182;48.174;11.562;2023-12-28T01:41:25;3.87;;;3.53;;
27802;SDS011;15182;48.174;11.562;2023-12-28T01:43:53;3.30;;;3.20;;
27802;SDS011;15182;48.174;11.562;2023-12-28T01:46:21;3.63;;;3.53;;
27802;SDS011;15182;48.174;11.562;2023-12-28T01:48:49;3.47;;;3.37;;
27802;SDS011;15182;48.174;11.562;2023-12-28T01:51:18;3.10;;;2.90;;
27802;SDS011;15182;48.174;11.562;2023-12-28T01:53:47;3.53;;;3.43;;
27802;SDS011;15182;48.174;11.562;2023-12-28T01:56:19;3.07;;;3.07;;
27802;SDS011;15182;48.174;11.562;2023-12-28T01:58:48;3.43;;;3.30;;
27802;SDS011;15182;48.174;11.562;2023-12-28T02:01:18;3.40;;;3.30;;
27802;SDS011;15182;48.174;11.562;2023-12-28T02:03:46;3.10;;;3.10;;
27802;SDS011;15182;48.174;11.562;2023-12-28T02:06:14;4.00;;;3.80;;
27802;SDS011;15182;48.174;11.562;2023-12-28T02:08:43;3.10;;;3.00;;
27802;SDS011;15182;48.174;11.562;2023-12-28T02:11:10;3.40;;;3.40;;
27802;SDS011;15182;48.174;11.562;2023-12-28T02:13:40;3.50;;;3.13;;
27802;SDS011;15182;48.174;11.562;2023-12-28T02:16:09;3.17;;;3.17;;
27802;SDS011;15182;48.174;11.562;2023-12-28T02:18:43;3.30;;;3.20;;
27802;SDS011;15182;48.174;11.562;2023-12-28T02:21:16;3.57;;;3.47;;
27802;SDS011;15182;48.174;11.562;2023-12-28T02:23:47;3.17;;;3.17;;
27802;SDS011;15182;48.174;11.562;2023-12-28T02:26:16;3.77;;;3.67;;
27802;SDS011;15182;48.174;11.562;2023-12-28T02:28:46;3.23;;;3.23;;
27802;SDS011;15182;48.174;11.562;2023-12-28T02:31:17;3.30;;;3.10;;
27802;SDS011;15182;48.174;11.562;2023-12-28T02:33:49;5.90;;;3.53;;
27802;SDS011;15182;48.174;11.562;2023-12-28T02:36:25;3.30;;;3.20;;
27802;SDS011;15182;48.174;11.562;2023-12-28T02:38:54;3.53;;;3.43;;
27802;SDS011;15182;48.174;11.562;2023-12-28T02:41:26;3.73;;;3.53;;
27802;SDS011;15182;48.174;11.562;2023-12-28T02:43:54;3.50;;;3.40;;
27802;SDS011;15182;48.174;11.562;2023-12-28T02:46:22;3.70;;;3.67;;
27802;SDS011;15182;48.174;11.562;2023-12-28T02:48:50;3.60;;;3.37;;
27802;SDS011;15182;48.174;11.562;2023-12-28T02:51:18;3.57;;;3.47;;
27802;SDS011;15182;48.174;11.562;2023-12-28T02:53:46;3.83;;;3.67;;
27802;SDS011;15182;48.174;11.562;2023-12-28T02:56:15;3.50;;;3.40;;
27802;SDS011;15182;48.174;11.562;2023-12-28T02:58:45;3.50;;;3.40;;
27802;SDS011;15182;48.174;11.562;2023-12-28T03:01:12;3.73;;;3.63;;
27802;SDS011;15182;48.174;11.562;2023-12-28T03:03:40;4.03;;;3.90;;
27802;SDS011;15182;48.174;11.562;2023-12-28T03:06:08;3.90;;;3.70;;
27802;SDS011;15182;48.174;11.562;2023-12-28T03:08:36;3.63;;;3.53;;
27802;SDS011;15182;48.174;11.562;2023-12-28T03:11:03;3.87;;;3.77;;
27802;SDS011;15182;48.174;11.562;2023-12-28T03:13:32;3.90;;;3.70;;
27802;SDS011;15182;48.174;11.562;2023-12-28T03:16:01;3.97;;;3.77;;
27802;SDS011;15182;48.174;11.562;2023-12-28T03:18:28;3.47;;;3.37;;
27802;SDS011;15182;48.174;11.562;2023-12-28T03:20:56;4.10;;;3.97;;
27802;SDS011;15182;48.174;11.562;2023-12-28T03:23:24;3.90;;;3.80;;
27802;SDS011;15182;48.174;11.562;2023-12-28T03:25:52;4.00;;;3.90;;
27802;SDS011;15182;48.174;11.562;2023-12-28T03:28:20;4.07;;;3.97;;
27802;SDS011;15182;48.174;11.562;2023-12-28T03:30:47;3.37;;;3.37;;
27802;SDS011;15182;48.174;11.562;2023-12-28T03:33:17;3.73;;;3.60;;
27802;SDS011;15182;48.174;11.562;2023-12-28T03:35:44;3.40;;;3.30;;
27802;SDS011;15182;48.174;11.562;2023-12-28T03:38:13;3.67;;;3.57;;
27802;SDS011;15182;48.174;11.562;2023-12-28T03:40:41;4.03;;;3.93;;
27802;SDS011;15182;48.174;11.562;2023-12-28T03:43:12;3.27;;;3.27;;
27802;SDS011;15182;48.174;11.562;2023-12-28T03:45:40;3.40;;;3.30;;
27802;SDS011;15182;48.174;11.562;2023-12-28T03:48:08;3.23;;;3.13;;
27802;SDS011;15182;48.174;11.562;2023-12-28T03:50:37;3.40;;;3.30;;
27802;SDS011;15182;48.174;11.562;2023-12-28T03:53:05;3.20;;;3.20;;
27802;SDS011;15182;48.174;11.562;2023-12-28T03:55:33;3.20;;;3.20;;
27802;SDS011;15182;48.174;11.562;2023-12-28T03:58:01;3.00;;;2.90;;
27802;SDS011;15182;48.174;11.562;2023-12-28T04:00:28;3.10;;;3.10;;
27802;SDS011;15182;48.174;11.562;2023-12-28T04:02:58;3.20;;;3.20;;
27802;SDS011;15182;48.174;11.562;2023-12-28T04:05:26;3.00;;;3.00;;
27802;SDS011;15182;48.174;11.562;2023-12-28T04:07:55;3.40;;;3.30;;
27802;SDS011;15182;48.174;11.562;2023-12-28T04:10:28;3.27;;;3.27;;
27802;SDS011;15182;48.174;11.562;2023-12-28T04:12:59;3.50;;;3.40;;
27802;SDS011;15182;48.174;11.562;2023-12-28T04:15:27;2.63;;;2.63;;
27802;SDS011;15182;48.174;11.562;2023-12-28T04:17:56;2.93;;;2.93;;
27802;SDS011;15182;48.174;11.562;2023-12-28T04:20:24;3.00;;;3.00;;
27802;SDS011;15182;48.174;11.562;2023-12-28T04:22:52;3.13;;;3.13;;
27802;SDS011;15182;48.174;11.562;2023-12-28T04:25:21;3.20;;;3.20;;
27802;SDS011;15182;48.174;11.562;2023-12-28T04:27:49;3.10;;;3.10;;
27802;SDS011;15182;48.174;11.562;2023-12-28T04:30:17;3.20;;;3.20;;
27802;SDS011;15182;48.174;11.562;2023-12-28T04:32:45;2.80;;;2.80;;
27802;SDS011;15182;48.174;11.562;2023-12-28T04:35:13;2.97;;;2.97;;
27802;SDS011;15182;48.174;11.562;2023-12-28T04:37:40;3.10;;;3.10;;
27802;SDS011;15182;48.174;11.562;2023-12-28T04:40:10;3.23;;;3.23;;
27802;SDS011;15182;48.174;11.562;2023-12-28T04:42:40;3.10;;;3.10;;
27802;SDS011;15182;48.174;11.562;2023-12-28T04:45:09;3.13;;;3.13;;
27802;SDS011;15182;48.174;11.562;2023-12-28T04:47:37;2.93;;;2.93;;
27802;SDS011;15182;48.174;11.562;2023-12-28T04:50:05;2.80;;;2.80;;
27802;SDS011;15182;48.174;11.562;2023-12-28T04:52:34;2.73;;;2.70;;
27802;SDS011;15182;48.174;11.562;2023-12-28T04:55:01;3.07;;;3.07;;
27802;SDS011;15182;48.174;11.562;2023-12-28T04:57:31;2.73;;;2.73;;
27802;SDS011;15182;48.174;11.562;2023-12-28T04:59:59;3.10;;;3.10;;
27802;SDS011;15182;48.174;11.562;2023-12-28T05:02:27;3.17;;;3.07;;
27802;SDS011;15182;48.174;11.562;2023-12-28T05:04:55;3.00;;;3.00;;
27802;SDS011;15182;48.174;11.562;2023-12-28T05:07:23;3.03;;;2.83;;
27802;SDS011;15182;48.174;11.562;2023-12-28T05:09:51;2.83;;;2.83;;
27802;SDS011;15182;48.174;11.562;2023-12-28T05:12:18;3.00;;;3.00;;
27802;SDS011;15182;48.174;11.562;2023-12-28T05:14:48;3.17;;;3.17;;
27802;SDS011;15182;48.174;11.562;2023-12-28T05:17:15;3.20;;;3.20;;
27802;SDS011;15182;48.174;11.562;2023-12-28T05:19:43;3.30;;;3.20;;
27802;SDS011;15182;48.174;11.562;2023-12-28T05:22:11;3.10;;;3.10;;
27802;SDS011;15182;48.174;11.562;2023-12-28T05:24:39;3.33;;;3.23;;
27802;SDS011;15182;48.174;11.562;2023-12-28T05:27:07;3.37;;;3.37;;
27802;SDS011;15182;48.174;11.562;2023-12-28T05:29:35;3.00;;;3.00;;
27802;SDS011;15182;48.174;11.562;2023-12-28T05:32:04;2.93;;;2.93;;
27802;SDS011;15182;48.174;11.562;2023-12-28T05:34:33;3.50;;;3.50;;
27802;SDS011;15182;48.174;11.562;2023-12-28T05:37:00;2.83;;;2.83;;
27802;SDS011;15182;48.174;11.562;2023-12-28T05:39:28;3.00;;;3.00;;
27802;SDS011;15182;48.174;11.562;2023-12-28T05:41:56;3.13;;;3.10;;
27802;SDS011;15182;48.174;11.562;2023-12-28T05:44:24;3.23;;;3.23;;
27802;SDS011;15182;48.174;11.562;2023-12-28T05:46:52;2.90;;;2.90;;
27802;SDS011;15182;48.174;11.562;2023-12-28T05:49:21;2.87;;;2.80;;
27802;SDS011;15182;48.174;11.562;2023-12-28T05:51:50;4.60;;;3.70;;
27802;SDS011;15182;48.174;11.562;2023-12-28T05:54:18;2.90;;;2.90;;
27802;SDS011;15182;48.174;11.562;2023-12-28T05:56:46;3.00;;;2.90;;
27802;SDS011;15182;48.174;11.562;2023-12-28T05:59:14;3.13;;;3.13;;
27802;SDS011;15182;48.174;11.562;2023-12-28T06:01:42;3.00;;;3.00;;
27802;SDS011;15182;48.174;11.562;2023-12-28T06:04:10;3.20;;;3.10;;
27802;SDS011;15182;48.174;11.562;2023-12-28T06:06:39;2.87;;;2.87;;
27802;SDS011;15182;48.174;11.562;2023-12-28T06:09:07;3.37;;;3.27;;
27802;SDS011;15182;48.174;11.562;2023-12-28T06:11:35;3.50;;;3.50;;
27802;SDS011;15182;48.174;11.562;2023-12-28T06:14:03;3.07;;;3.07;;
27802;SDS011;15182;48.174;11.562;2023-12-28T06:16:30;2.90;;;2.90;;
27802;SDS011;15182;48.174;11.562;2023-12-28T06:18:59;2.70;;;2.70;;
27802;SDS011;15182;48.174;11.562;2023-12-28T06:21:27;2.87;;;2.80;;
27802;SDS011;15182;48.174;11.562;2023-12-28T06:23:57;3.00;;;3.00;;
27802;SDS011;15182;48.174;11.562;2023-12-28T06:26:25;2.97;;;2.97;;
27802;SDS011;15182;48.174;11.562;2023-12-28T06:28:52;3.53;;;3.30;;
27802;SDS011;15182;48.174;11.562;2023-12-28T06:31:20;3.03;;;2.83;;
27802;SDS011;15182;48.174;11.562;2023-12-28T06:33:48;3.23;;;3.03;;
27802;SDS011;15182;48.174;11.562;2023-12-28T06:36:17;2.70;;;2.70;;
27802;SDS011;15182;48.174;11.562;2023-12-28T06:38:45;3.00;;;3.00;;
27802;SDS011;15182;48.174;11.562;2023-12-28T06:41:14;3.07;;;2.97;;
27802;SDS011;15182;48.174;11.562;2023-12-28T06:43:42;2.90;;;2.90;;
27802;SDS011;15182;48.174;11.562;2023-12-28T06:46:09;2.70;;;2.70;;
27802;SDS011;15182;48.174;11.562;2023-12-28T06:48:37;3.17;;;3.17;;
27802;SDS011;15182;48.174;11.562;2023-12-28T06:51:06;3.00;;;3.00;;
27802;SDS011;15182;48.174;11.562;2023-12-28T06:53:34;3.50;;;3.40;;
27802;SDS011;15182;48.174;11.562;2023-12-28T06:56:01;3.50;;;3.50;;
27802;SDS011;15182;48.174;11.562;2023-12-28T06:58:30;3.67;;;3.10;;
27802;SDS011;15182;48.174;11.562;2023-12-28T07:00:58;3.27;;;3.27;;
27802;SDS011;15182;48.174;11.562;2023-12-28T07:03:25;3.40;;;3.30;;
27802;SDS011;15182;48.174;11.562;2023-12-28T07:05:56;3.67;;;3.37;;
27802;SDS011;15182;48.174;11.562;2023-12-28T07:08:23;3.53;;;3.43;;
27802;SDS011;15182;48.174;11.562;2023-12-28T07:10:51;4.33;;;2.90;;
27802;SDS011;15182;48.174;11.562;2023-12-28T07:13:19;3.00;;;2.90;;
27802;SDS011;15182;48.174;11.562;2023-12-28T07:15:48;4.47;;;3.23;;
27802;SDS011;15182;48.174;11.562;2023-12-28T07:18:16;3.20;;;3.17;;
27802;SDS011;15182;48.174;11.562;2023-12-28T07:20:44;3.50;;;3.50;;
27802;SDS011;15182;48.174;11.562;2023-12-28T07:23:12;3.40;;;3.20;;
27802;SDS011;15182;48.174;11.562;2023-12-28T07:25:40;3.70;;;3.50;;
27802;SDS011;15182;48.174;11.562;2023-12-28T07:28:07;3.93;;;3.83;;
27802;SDS011;15182;48.174;11.562;2023-12-28T07:30:36;3.50;;;3.40;;
27802;SDS011;15182;48.174;11.562;2023-12-28T07:33:05;3.47;;;3.37;;
27802;SDS011;15182;48.174;11.562;2023-12-28T07:35:33;3.50;;;3.40;;
27802;SDS011;15182;48.174;11.562;2023-12-28T07:38:01;3.30;;;3.30;;
27802;SDS011;15182;48.174;11.562;2023-12-28T07:40:29;7.83;;;3.80;;
27802;SDS011;15182;48.174;11.562;2023-12-28T07:42:57;3.73;;;3.47;;
27802;SDS011;15182;48.174;11.562;2023-12-28T07:45:24;14.33;;;4.27;;
27802;SDS011;15182;48.174;11.562;2023-12-28T07:47:52;3.97;;;3.67;;
27802;SDS011;15182;48.174;11.562;2023-12-28T07:50:22;8.70;;;3.50;;
27802;SDS011;15182;48.174;11.562;2023-12-28T07:52:49;4.00;;;3.60;;
27802;SDS011;15182;48.174;11.562;2023-12-28T07:55:17;6.73;;;3.33;;
27802;SDS011;15182;48.174;11.562;2023-12-28T07:57:45;3.40;;;3.37;;
27802;SDS011;15182;48.174;11.562;2023-12-28T08:00:13;3.20;;;3.10;;
27802;SDS011;15182;48.174;11.562;2023-12-28T08:02:41;3.50;;;3.20;;
27802;SDS011;15182;48.174;11.562;2023-12-28T08:05:09;3.20;;;3.10;;
27802;SDS011;15182;48.174;11.562;2023-12-28T08:07:38;3.50;;;3.23;;
27802;SDS011;15182;48.174;11.562;2023-12-28T08:10:06;3.50;;;3.50;;
27802;SDS011;15182;48.174;11.562;2023-12-28T08:12:35;3.90;;;3.70;;
27802;SDS011;15182;48.174;11.562;2023-12-28T08:15:03;3.43;;;3.13;;
27802;SDS011;15182;48.174;11.562;2023-12-28T08:17:32;3.27;;;3.17;;
27802;SDS011;15182;48.174;11.562;2023-12-28T08:20:00;3.20;;;3.13;;
27802;SDS011;15182;48.174;11.562;2023-12-28T08:22:28;3.17;;;3.10;;
27802;SDS011;15182;48.174;11.562;2023-12-28T08:24:58;3.40;;;3.30;;
27802;SDS011;15182;48.174;11.562;2023-12-28T08:27:26;3.37;;;3.27;;
27802;SDS011;15182;48.174;11.562;2023-12-28T08:29:54;3.40;;;3.40;;
27802;SDS011;15182;48.174;11.562;2023-12-28T08:32:21;3.80;;;3.63;;
27802;SDS011;15182;48.174;11.562;2023-12-28T08:34:49;3.37;;;3.33;;
27802;SDS011;15182;48.174;11.562;2023-12-28T08:37:17;3.60;;;3.60;;
27802;SDS011;15182;48.174;11.562;2023-12-28T08:39:45;3.13;;;3.10;;
27802;SDS011;15182;48.174;11.562;2023-12-28T08:42:14;3.00;;;2.90;;
27802;SDS011;15182;48.174;11.562;2023-12-28T08:44:41;3.30;;;3.20;;
27802;SDS011;15182;48.174;11.562;2023-12-28T08:47:09;3.40;;;3.10;;
27802;SDS011;15182;48.174;11.562;2023-12-28T08:49:37;3.00;;;3.00;;
27802;SDS011;15182;48.174;11.562;2023-12-28T08:52:05;2.83;;;2.83;;
27802;SDS011;15182;48.174;11.562;2023-12-28T08:54:33;3.70;;;3.60;;
27802;SDS011;15182;48.174;11.562;2023-12-28T08:57:00;3.33;;;3.13;;
27802;SDS011;15182;48.174;11.562;2023-12-28T08:59:30;3.23;;;3.13;;
27802;SDS011;15182;48.174;11.562;2023-12-28T09:01:57;3.03;;;2.77;;
27802;SDS011;15182;48.174;11.562;2023-12-28T09:04:27;2.90;;;2.90;;
27802;SDS011;15182;48.174;11.562;2023-12-28T09:06:55;3.23;;;3.13;;
27802;SDS011;15182;48.174;11.562;2023-12-28T09:09:22;3.70;;;3.40;;
27802;SDS011;15182;48.174;11.562;2023-12-28T09:11:50;2.80;;;2.80;;
27802;SDS011;15182;48.174;11.562;2023-12-28T09:14:18;3.13;;;3.03;;
27802;SDS011;15182;48.174;11.562;2023-12-28T09:16:47;3.13;;;3.03;;
27802;SDS011;15182;48.174;11.562;2023-12-28T09:19:15;2.97;;;2.87;;
27802;SDS011;15182;48.174;11.562;2023-12-28T09:21:43;3.00;;;2.90;;
27802;SDS011;15182;48.174;11.562;2023-12-28T09:24:11;2.80;;;2.70;;
27802;SDS011;15182;48.174;11.562;2023-12-28T09:26:40;3.00;;;2.90;;
27802;SDS011;15182;48.174;11.562;2023-12-28T09:29:08;2.97;;;2.87;;
27802;SDS011;15182;48.174;11.562;2023-12-28T09:31:37;3.37;;;2.93;;
27802;SDS011;15182;48.174;11.562;2023-12-28T09:34:07;3.20;;;3.00;;
27802;SDS011;15182;48.174;11.562;2023-12-28T09:36:35;3.20;;;3.10;;
27802;SDS011;15182;48.174;11.562;2023-12-28T09:39:03;3.50;;;3.30;;
27802;SDS011;15182;48.174;11.562;2023-12-28T09:41:34;5.23;;;3.20;;
27802;SDS011;15182;48.174;11.562;2023-12-28T09:44:07;2.80;;;2.80;;
27802;SDS011;15182;48.174;11.562;2023-12-28T09:46:40;2.80;;;2.80;;
27802;SDS011;15182;48.174;11.562;2023-12-28T09:49:11;3.07;;;2.87;;
27802;SDS011;15182;48.174;11.562;2023-12-28T09:51:39;3.20;;;3.20;;
27802;SDS011;15182;48.174;11.562;2023-12-28T09:54:07;2.40;;;2.30;;
27802;SDS011;15182;48.174;11.562;2023-12-28T09:56:35;4.33;;;2.83;;
27802;SDS011;15182;48.174;11.562;2023-12-28T09:59:03;2.80;;;2.80;;
27802;SDS011;15182;48.174;11.562;2023-12-28T10:01:32;2.47;;;2.47;;
27802;SDS011;15182;48.174;11.562;2023-12-28T10:04:02;2.67;;;2.47;;
27802;SDS011;15182;48.174;11.562;2023-12-28T10:06:31;2.57;;;2.57;;
27802;SDS011;15182;48.174;11.562;2023-12-28T10:08:59;3.13;;;2.97;;
27802;SDS011;15182;48.174;11.562;2023-12-28T10:11:27;3.30;;;2.80;;
27802;SDS011;15182;48.174;11.562;2023-12-28T10:13:56;2.57;;;2.57;;
27802;SDS011;15182;48.174;11.562;2023-12-28T10:16:25;2.83;;;2.83;;
27802;SDS011;15182;48.174;11.562;2023-12-28T10:18:55;2.83;;;2.63;;
27802;SDS011;15182;48.174;11.562;2023-12-28T10:21:23;2.20;;;2.20;;
27802;SDS011;15182;48.174;11.562;2023-12-28T10:23:52;3.00;;;2.93;;
27802;SDS011;15182;48.174;11.562;2023-12-28T10:26:20;2.83;;;2.83;;
27802;SDS011;15182;48.174;11.562;2023-12-28T10:28:48;2.70;;;2.70;;
27802;SDS011;15182;48.174;11.562;2023-12-28T10:31:16;3.90;;;3.70;;
27802;SDS011;15182;48.174;11.562;2023-12-28T10:33:44;3.30;;;3.20;;
27802;SDS011;15182;48.174;11.562;2023-12-28T10:36:12;4.00;;;3.80;;
27802;SDS011;15182;48.174;11.562;2023-12-28T10:38:42;3.47;;;3.37;;
27802;SDS011;15182;48.174;11.562;2023-12-28T10:41:13;3.07;;;2.93;;
27802;SDS011;15182;48.174;11.562;2023-12-28T10:43:44;2.80;;;2.77;;
27802;SDS011;15182;48.174;11.562;2023-12-28T10:46:16;2.80;;;2.80;;
27802;SDS011;15182;48.174;11.562;2023-12-28T10:48:55;2.80;;;2.60;;
27802;SDS011;15182;48.174;11.562;2023-12-28T10:51:27;2.60;;;2.50;;
27802;SDS011;15182;48.174;11.562;2023-12-28T10:53:59;2.73;;;2.73;;
27802;SDS011;15182;48.174;11.562;2023-12-28T10:56:41;2.70;;;2.53;;
27802;SDS011;15182;48.174;11.562;2023-12-28T10:59:17;2.40;;;2.30;;
27802;SDS011;15182;48.174;11.562;2023-12-28T11:01:54;2.63;;;2.63;;
27802;SDS011;15182;48.174;11.562;2023-12-28T11:04:24;5.07;;;2.87;;
27802;SDS011;15182;48.174;11.562;2023-12-28T11:06:59;2.57;;;2.57;;
27802;SDS011;15182;48.174;11.562;2023-12-28T11:09:29;2.70;;;2.70;;
27802;SDS011;15182;48.174;11.562;2023-12-28T11:11:59;2.87;;;2.40;;
27802;SDS011;15182;48.174;11.562;2023-12-28T11:14:30;2.63;;;2.63;;
27802;SDS011;15182;48.174;11.562;2023-12-28T11:16:59;2.80;;;2.60;;
27802;SDS011;15182;48.174;11.562;2023-12-28T11:19:27;2.93;;;2.93;;
27802;SDS011;15182;48.174;11.562;2023-12-28T11:21:56;2.77;;;2.57;;
27802;SDS011;15182;48.174;11.562;2023-12-28T11:24:26;2.73;;;2.73;;
27802;SDS011;15182;48.174;11.562;2023-12-28T11:26:55;2.93;;;2.93;;
27802;SDS011;15182;48.174;11.562;2023-12-28T11:29:24;2.73;;;2.67;;
27802;SDS011;15182;48.174;11.562;2023-12-28T11:31:52;2.80;;;2.70;;
27802;SDS011;15182;48.174;11.562;2023-12-28T11:34:24;2.43;;;2.43;;
27802;SDS011;15182;48.174;11.562;2023-12-28T11:36:52;3.03;;;2.80;;
27802;SDS011;15182;48.174;11.562;2023-12-28T11:39:26;3.90;;;2.67;;
27802;SDS011;15182;48.174;11.562;2023-12-28T11:41:59;2.73;;;2.73;;
27802;SDS011;15182;48.174;11.562;2023-12-28T11:44:30;3.07;;;2.87;;
27802;SDS011;15182;48.174;11.562;2023-12-28T11:46:58;2.67;;;2.57;;
27802;SDS011;15182;48.174;11.562;2023-12-28T11:49:26;2.70;;;2.60;;
27802;SDS011;15182;48.174;11.562;2023-12-28T11:51:55;2.50;;;2.40;;
27802;SDS011;15182;48.174;11.562;2023-12-28T11:54:25;2.60;;;2.60;;
27802;SDS011;15182;48.174;11.562;2023-12-28T11:56:53;2.53;;;2.50;;
27802;SDS011;15182;48.174;11.562;2023-12-28T11:59:21;2.57;;;2.47;;
27802;SDS011;15182;48.174;11.562;2023-12-28T12:01:51;2.60;;;2.50;;
27802;SDS011;15182;48.174;11.562;2023-12-28T12:04:20;2.40;;;2.40;;
27802;SDS011;15182;48.174;11.562;2023-12-28T12:06:48;2.70;;;2.70;;
27802;SDS011;15182;48.174;11.562;2023-12-28T12:09:18;6.13;;;2.70;;
27802;SDS011;15182;48.174;11.562;2023-12-28T12:11:48;2.63;;;2.53;;
27802;SDS011;15182;48.174;11.562;2023-12-28T12:14:16;2.50;;;2.50;;
27802;SDS011;15182;48.174;11.562;2023-12-28T12:16:44;2.70;;;2.70;;
27802;SDS011;15182;48.174;11.562;2023-12-28T12:19:14;2.30;;;2.30;;
27802;SDS011;15182;48.174;11.562;2023-12-28T12:21:42;2.10;;;2.10;;
27802;SDS011;15182;48.174;11.562;2023-12-28T12:24:10;2.50;;;2.50;;
27802;SDS011;15182;48.174;11.562;2023-12-28T12:26:38;2.60;;;2.40;;
27802;SDS011;15182;48.174;11.562;2023-12-28T12:29:06;2.23;;;2.23;;
27802;SDS011;15182;48.174;11.562;2023-12-28T12:31:34;2.70;;;2.70;;
27802;SDS011;15182;48.174;11.562;2023-12-28T12:34:03;2.60;;;2.50;;
27802;SDS011;15182;48.174;11.562;2023-12-28T12:36:33;2.20;;;2.20;;
27802;SDS011;15182;48.174;11.562;2023-12-28T12:39:01;3.37;;;2.40;;
27802;SDS011;15182;48.174;11.562;2023-12-28T12:41:30;2.30;;;2.27;;
27802;SDS011;15182;48.174;11.562;2023-12-28T12:43:58;2.60;;;2.50;;
27802;SDS011;15182;48.174;11.562;2023-12-28T12:46:26;2.90;;;2.80;;
27802;SDS011;15182;48.174;11.562;2023-12-28T12:48:55;3.80;;;2.60;;
27802;SDS011;15182;48.174;11.562;2023-12-28T12:51:23;2.40;;;2.40;;
27802;SDS011;15182;48.174;11.562;2023-12-28T12:53:56;2.73;;;2.53;;
27802;SDS011;15182;48.174;11.562;2023-12-28T12:56:25;2.67;;;2.67;;
27802;SDS011;15182;48.174;11.562;2023-12-28T12:58:53;2.63;;;2.63;;
27802;SDS011;15182;48.174;11.562;2023-12-28T13:01:21;2.50;;;2.47;;
27802;SDS011;15182;48.174;11.562;2023-12-28T13:03:50;2.40;;;2.40;;
27802;SDS011;15182;48.174;11.562;2023-12-28T13:06:18;2.80;;;2.80;;
27802;SDS011;15182;48.174;11.562;2023-12-28T13:08:48;2.40;;;2.40;;
27802;SDS011;15182;48.174;11.562;2023-12-28T13:11:17;2.40;;;2.40;;
27802;SDS011;15182;48.174;11.562;2023-12-28T13:13:49;2.10;;;2.10;;
27802;SDS011;15182;48.174;11.562;2023-12-28T13:16:17;2.50;;;2.50;;
27802;SDS011;15182;48.174;11.562;2023-12-28T13:18:45;2.57;;;2.57;;
27802;SDS011;15182;48.174;11.562;2023-12-28T13:21:13;2.93;;;2.80;;
27802;SDS011;15182;48.174;11.562;2023-12-28T13:23:40;2.47;;;2.30;;
27802;SDS011;15182;48.174;11.562;2023-12-28T13:26:08;2.93;;;2.73;;
27802;SDS011;15182;48.174;11.562;2023-12-28T13:28:37;2.43;;;2.30;;
27802;SDS011;15182;48.174;11.562;2023-12-28T13:31:05;4.90;;;2.37;;
27802;SDS011;15182;48.174;11.562;2023-12-28T13:33:33;2.63;;;2.60;;
27802;SDS011;15182;48.174;11.562;2023-12-28T13:36:01;2.70;;;2.70;;
27802;SDS011;15182;48.174;11.562;2023-12-28T13:38:29;2.70;;;2.60;;
27802;SDS011;15182;48.174;11.562;2023-12-28T13:40:57;2.60;;;2.60;;
27802;SDS011;15182;48.174;11.562;2023-12-28T13:43:25;2.67;;;2.67;;
27802;SDS011;15182;48.174;11.562;2023-12-28T13:45:54;2.97;;;2.90;;
27802;SDS011;15182;48.174;11.562;2023-12-28T13:48:22;3.07;;;2.57;;
27802;SDS011;15182;48.174;11.562;2023-12-28T13:50:50;2.90;;;2.70;;
27802;SDS011;15182;48.174;11.562;2023-12-28T13:53:17;2.60;;;2.60;;
27802;SDS011;15182;48.174;11.562;2023-12-28T13:55:45;3.03;;;2.93;;
27802;SDS011;15182;48.174;11.562;2023-12-28T13:58:13;2.70;;;2.70;;
27802;SDS011;15182;48.174;11.562;2023-12-28T14:00:41;2.83;;;2.83;;
27802;SDS011;15182;48.174;11.562;2023-12-28T14:03:10;2.60;;;2.60;;
27802;SDS011;15182;48.174;11.562;2023-12-28T14:05:41;2.63;;;2.63;;
27802;SDS011;15182;48.174;11.562;2023-12-28T14:08:09;2.83;;;2.77;;
27802;SDS011;15182;48.174;11.562;2023-12-28T14:10:37;2.60;;;2.60;;
27802;SDS011;15182;48.174;11.562;2023-12-28T14:13:05;2.70;;;2.70;;
27802;SDS011;15182;48.174;11.562;2023-12-28T14:15:32;4.60;;;2.50;;
27802;SDS011;15182;48.174;11.562;2023-12-28T14:18:00;2.57;;;2.47;;
27802;SDS011;15182;48.174;11.562;2023-12-28T14:20:32;2.20;;;2.20;;
27802;SDS011;15182;48.174;11.562;2023-12-28T14:23:00;2.60;;;2.60;;
27802;SDS011;15182;48.174;11.562;2023-12-28T14:25:28;2.80;;;2.70;;
27802;SDS011;15182;48.174;11.562;2023-12-28T14:27:57;3.03;;;2.87;;
27802;SDS011;15182;48.174;11.562;2023-12-28T14:30:26;2.90;;;2.60;;
27802;SDS011;15182;48.174;11.562;2023-12-28T14:32:55;2.70;;;2.70;;
27802;SDS011;15182;48.174;11.562;2023-12-28T14:35:23;2.73;;;2.63;;
27802;SDS011;15182;48.174;11.562;2023-12-28T14:37:53;2.63;;;2.63;;
27802;SDS011;15182;48.174;11.562;2023-12-28T14:40:21;2.50;;;2.43;;